sensor_id;sensor_type;location;lat;lon;timestamp;temperature;humidity
65637;DHT22;52327;42.622;23.316;2023-12-29T00:02:04;5.32;72.45
65637;DHT22;52327;42.622;23.316;2023-12-29T00:04:30;5.42;72.01
65637;DHT22;52327;42.622;23.316;2023-12-29T00:06:55;5.43;71.90
65637;DHT22;52327;42.622;23.316;2023-12-29T00:09:21;5.39;72.17
65637;DHT22;52327;42.622;23.316;2023-12-29T00:11:50;5.38;72.00
65637;DHT22;52327;42.622;23.316;2023-12-29T00:14:16;5.38;72.06
65637;DHT22;52327;42.622;23.316;2023-12-29T00:16:42;5.49;70.52
65637;DHT22;52327;42.622;23.316;2023-12-29T00:19:09;5.43;71.80
65637;DHT22;52327;42.622;23.316;2023-12-29T00:21:35;5.33;71.87
65637;DHT22;52327;42.622;23.316;2023-12-29T00:24:01;5.33;71.92
65637;DHT22;52327;42.622;23.316;2023-12-29T00:26:26;5.28;72.02
65637;DHT22;52327;42.622;23.316;2023-12-29T00:28:54;5.29;72.43
65637;DHT22;52327;42.622;23.316;2023-12-29T00:31:19;5.36;71.87
65637;DHT22;52327;42.622;23.316;2023-12-29T00:33:45;5.25;72.14
65637;DHT22;52327;42.622;23.316;2023-12-29T00:36:17;5.22;71.34
65637;DHT22;52327;42.622;23.316;2023-12-29T00:38:42;5.19;72.81
65637;DHT22;52327;42.622;23.316;2023-12-29T00:41:08;5.36;70.60
65637;DHT22;52327;42.622;23.316;2023-12-29T00:43:45;5.19;72.30
65637;DHT22;52327;42.622;23.316;2023-12-29T00:46:14;5.23;72.42
65637;DHT22;52327;42.622;23.316;2023-12-29T00:48:43;5.25;70.93
65637;DHT22;52327;42.622;23.316;2023-12-29T00:51:09;5.16;72.46
65637;DHT22;52327;42.622;23.316;2023-12-29T00:53:35;5.22;72.79
65637;DHT22;52327;42.622;23.316;2023-12-29T00:56:01;5.18;72.96
65637;DHT22;52327;42.622;23.316;2023-12-29T00:58:27;5.25;72.23
65637;DHT22;52327;42.622;23.316;2023-12-29T01:00:52;5.16;72.77
65637;DHT22;52327;42.622;23.316;2023-12-29T01:03:18;5.09;73.26
65637;DHT22;52327;42.622;23.316;2023-12-29T01:05:43;5.16;71.75
65637;DHT22;52327;42.622;23.316;2023-12-29T01:08:09;5.06;72.48
65637;DHT22;52327;42.622;23.316;2023-12-29T01:10:34;5.33;70.45
65637;DHT22;52327;42.622;23.316;2023-12-29T01:12:59;5.22;69.99
65637;DHT22;52327;42.622;23.316;2023-12-29T01:15:25;5.12;70.67
65637;DHT22;52327;42.622;23.316;2023-12-29T01:17:50;4.87;71.46
65637;DHT22;52327;42.622;23.316;2023-12-29T01:20:16;4.91;71.24
65637;DHT22;52327;42.622;23.316;2023-12-29T01:22:41;4.88;70.47
65637;DHT22;52327;42.622;23.316;2023-12-29T01:25:07;5.00;70.21
65637;DHT22;52327;42.622;23.316;2023-12-29T01:27:32;5.04;70.04
65637;DHT22;52327;42.622;23.316;2023-12-29T01:29:57;5.04;71.27
65637;DHT22;52327;42.622;23.316;2023-12-29T01:32:25;5.16;70.97
65637;DHT22;52327;42.622;23.316;2023-12-29T01:34:52;5.22;70.95
65637;DHT22;52327;42.622;23.316;2023-12-29T01:37:18;5.35;70.19
65637;DHT22;52327;42.622;23.316;2023-12-29T01:39:43;5.63;68.91
65637;DHT22;52327;42.622;23.316;2023-12-29T01:42:08;5.80;67.92
65637;DHT22;52327;42.622;23.316;2023-12-29T01:44:36;5.67;69.24
65637;DHT22;52327;42.622;23.316;2023-12-29T01:47:02;5.66;68.93
65637;DHT22;52327;42.622;23.316;2023-12-29T01:49:31;5.44;69.95
65637;DHT22;52327;42.622;23.316;2023-12-29T01:51:58;5.39;69.76
65637;DHT22;52327;42.622;23.316;2023-12-29T01:54:27;5.38;69.70
65637;DHT22;52327;42.622;23.316;2023-12-29T01:56:56;5.38;69.44
65637;DHT22;52327;42.622;23.316;2023-12-29T01:59:25;5.33;69.37
65637;DHT22;52327;42.622;23.316;2023-12-29T02:01:51;5.06;70.68
65637;DHT22;52327;42.622;23.316;2023-12-29T02:04:18;5.06;70.49
65637;DHT22;52327;42.622;23.316;2023-12-29T02:06:44;5.18;69.46
65637;DHT22;52327;42.622;23.316;2023-12-29T02:09:09;5.13;70.93
65637;DHT22;52327;42.622;23.316;2023-12-29T02:11:38;5.06;71.08
65637;DHT22;52327;42.622;23.316;2023-12-29T02:14:03;5.13;69.43
65637;DHT22;52327;42.622;23.316;2023-12-29T02:19:43;5.00;69.24
65637;DHT22;52327;42.622;23.316;2023-12-29T02:22:10;4.81;70.27
65637;DHT22;52327;42.622;23.316;2023-12-29T02:24:37;4.95;68.78
65637;DHT22;52327;42.622;23.316;2023-12-29T02:27:18;4.87;70.08
65637;DHT22;52327;42.622;23.316;2023-12-29T02:29:56;4.91;69.80
65637;DHT22;52327;42.622;23.316;2023-12-29T02:32:22;4.88;69.01
65637;DHT22;52327;42.622;23.316;2023-12-29T02:34:50;5.02;67.56
65637;DHT22;52327;42.622;23.316;2023-12-29T02:37:17;5.00;68.61
65637;DHT22;52327;42.622;23.316;2023-12-29T02:39:43;4.96;67.97
65637;DHT22;52327;42.622;23.316;2023-12-29T02:42:09;4.85;68.93
65637;DHT22;52327;42.622;23.316;2023-12-29T02:44:34;4.93;67.90
65637;DHT22;52327;42.622;23.316;2023-12-29T02:47:00;4.93;67.88
65637;DHT22;52327;42.622;23.316;2023-12-29T02:49:26;4.74;69.26
65637;DHT22;52327;42.622;23.316;2023-12-29T02:51:52;4.82;68.94
65637;DHT22;52327;42.622;23.316;2023-12-29T02:54:17;4.71;69.39
65637;DHT22;52327;42.622;23.316;2023-12-29T02:56:42;4.78;69.27
65637;DHT22;52327;42.622;23.316;2023-12-29T02:59:08;4.79;69.23
65637;DHT22;52327;42.622;23.316;2023-12-29T03:01:33;4.95;68.91
65637;DHT22;52327;42.622;23.316;2023-12-29T03:04:00;4.88;69.64
65637;DHT22;52327;42.622;23.316;2023-12-29T03:06:26;4.82;69.79
65637;DHT22;52327;42.622;23.316;2023-12-29T03:08:51;4.78;69.81
65637;DHT22;52327;42.622;23.316;2023-12-29T03:11:16;4.92;68.81
65637;DHT22;52327;42.622;23.316;2023-12-29T03:13:42;4.89;69.96
65637;DHT22;52327;42.622;23.316;2023-12-29T03:16:10;4.98;68.93
65637;DHT22;52327;42.622;23.316;2023-12-29T03:18:36;4.99;68.22
65637;DHT22;52327;42.622;23.316;2023-12-29T03:21:05;4.99;68.38
65637;DHT22;52327;42.622;23.316;2023-12-29T03:23:30;4.93;69.50
65637;DHT22;52327;42.622;23.316;2023-12-29T03:25:59;4.87;70.32
65637;DHT22;52327;42.622;23.316;2023-12-29T03:28:24;4.78;71.22
65637;DHT22;52327;42.622;23.316;2023-12-29T03:30:50;4.84;70.10
65637;DHT22;52327;42.622;23.316;2023-12-29T03:33:15;4.74;71.19
65637;DHT22;52327;42.622;23.316;2023-12-29T03:35:40;4.64;70.63
65637;DHT22;52327;42.622;23.316;2023-12-29T03:38:06;4.37;70.97
65637;DHT22;52327;42.622;23.316;2023-12-29T03:40:31;4.30;71.44
65637;DHT22;52327;42.622;23.316;2023-12-29T03:42:57;4.24;71.32
65637;DHT22;52327;42.622;23.316;2023-12-29T03:45:22;4.23;71.78
65637;DHT22;52327;42.622;23.316;2023-12-29T03:47:47;4.18;72.04
65637;DHT22;52327;42.622;23.316;2023-12-29T03:50:13;4.14;71.39
65637;DHT22;52327;42.622;23.316;2023-12-29T03:52:38;4.09;71.35
65637;DHT22;52327;42.622;23.316;2023-12-29T03:55:04;4.18;71.24
65637;DHT22;52327;42.622;23.316;2023-12-29T03:57:30;4.23;71.43
65637;DHT22;52327;42.622;23.316;2023-12-29T03:59:55;4.29;70.93
65637;DHT22;52327;42.622;23.316;2023-12-29T04:02:20;4.27;71.87
65637;DHT22;52327;42.622;23.316;2023-12-29T04:04:46;4.27;71.47
65637;DHT22;52327;42.622;23.316;2023-12-29T04:07:11;4.21;71.70
65637;DHT22;52327;42.622;23.316;2023-12-29T04:09:37;4.14;72.98
65637;DHT22;52327;42.622;23.316;2023-12-29T04:12:02;4.18;73.23
65637;DHT22;52327;42.622;23.316;2023-12-29T04:14:28;4.27;71.90
65637;DHT22;52327;42.622;23.316;2023-12-29T04:16:53;4.29;72.23
65637;DHT22;52327;42.622;23.316;2023-12-29T04:19:18;4.30;72.28
65637;DHT22;52327;42.622;23.316;2023-12-29T04:21:44;4.17;72.71
65637;DHT22;52327;42.622;23.316;2023-12-29T04:24:09;4.10;73.71
65637;DHT22;52327;42.622;23.316;2023-12-29T04:26:36;4.05;74.99
65637;DHT22;52327;42.622;23.316;2023-12-29T04:29:02;4.16;74.29
65637;DHT22;52327;42.622;23.316;2023-12-29T04:31:27;4.27;72.60
65637;DHT22;52327;42.622;23.316;2023-12-29T04:33:52;4.16;73.51
65637;DHT22;52327;42.622;23.316;2023-12-29T04:36:21;4.10;74.60
65637;DHT22;52327;42.622;23.316;2023-12-29T04:38:46;4.16;72.41
65637;DHT22;52327;42.622;23.316;2023-12-29T04:41:12;4.20;70.79
65637;DHT22;52327;42.622;23.316;2023-12-29T04:43:38;3.90;73.53
65637;DHT22;52327;42.622;23.316;2023-12-29T04:46:03;3.82;73.44
65637;DHT22;52327;42.622;23.316;2023-12-29T04:48:29;3.81;72.70
65637;DHT22;52327;42.622;23.316;2023-12-29T04:50:54;3.86;70.91
65637;DHT22;52327;42.622;23.316;2023-12-29T04:53:20;3.89;70.44
65637;DHT22;52327;42.622;23.316;2023-12-29T04:55:45;3.75;71.98
65637;DHT22;52327;42.622;23.316;2023-12-29T04:58:10;3.78;71.65
65637;DHT22;52327;42.622;23.316;2023-12-29T05:00:36;3.82;70.82
65637;DHT22;52327;42.622;23.316;2023-12-29T05:03:01;3.83;71.12
65637;DHT22;52327;42.622;23.316;2023-12-29T05:05:27;3.62;72.03
65637;DHT22;52327;42.622;23.316;2023-12-29T05:07:52;3.79;70.00
65637;DHT22;52327;42.622;23.316;2023-12-29T05:10:18;3.61;72.23
65637;DHT22;52327;42.622;23.316;2023-12-29T05:12:43;3.44;72.59
65637;DHT22;52327;42.622;23.316;2023-12-29T05:15:08;3.46;72.71
65637;DHT22;52327;42.622;23.316;2023-12-29T05:17:34;3.68;72.13
65637;DHT22;52327;42.622;23.316;2023-12-29T05:19:59;3.69;72.71
65637;DHT22;52327;42.622;23.316;2023-12-29T05:22:25;3.68;73.36
65637;DHT22;52327;42.622;23.316;2023-12-29T05:24:53;3.73;73.19
65637;DHT22;52327;42.622;23.316;2023-12-29T05:27:22;3.87;72.47
65637;DHT22;52327;42.622;23.316;2023-12-29T05:29:48;3.95;71.66
65637;DHT22;52327;42.622;23.316;2023-12-29T05:32:13;4.23;69.50
65637;DHT22;52327;42.622;23.316;2023-12-29T05:34:39;4.41;68.29
65637;DHT22;52327;42.622;23.316;2023-12-29T05:37:04;4.37;68.48
65637;DHT22;52327;42.622;23.316;2023-12-29T05:39:30;4.32;70.19
65637;DHT22;52327;42.622;23.316;2023-12-29T05:41:58;4.29;70.91
65637;DHT22;52327;42.622;23.316;2023-12-29T05:44:25;4.21;71.35
65637;DHT22;52327;42.622;23.316;2023-12-29T05:46:51;4.24;71.18
65637;DHT22;52327;42.622;23.316;2023-12-29T05:49:19;4.23;71.80
65637;DHT22;52327;42.622;23.316;2023-12-29T05:51:49;4.29;71.16
65637;DHT22;52327;42.622;23.316;2023-12-29T05:54:14;4.21;72.36
65637;DHT22;52327;42.622;23.316;2023-12-29T05:56:40;4.34;71.08
65637;DHT22;52327;42.622;23.316;2023-12-29T05:59:05;4.58;68.67
65637;DHT22;52327;42.622;23.316;2023-12-29T06:01:31;4.30;70.67
65637;DHT22;52327;42.622;23.316;2023-12-29T06:03:56;4.10;72.09
65637;DHT22;52327;42.622;23.316;2023-12-29T06:06:21;4.18;72.13
65637;DHT22;52327;42.622;23.316;2023-12-29T06:08:47;4.10;72.74
65637;DHT22;52327;42.622;23.316;2023-12-29T06:11:16;4.10;72.59
65637;DHT22;52327;42.622;23.316;2023-12-29T06:13:45;4.18;71.92
65637;DHT22;52327;42.622;23.316;2023-12-29T06:16:17;4.13;72.09
65637;DHT22;52327;42.622;23.316;2023-12-29T06:18:42;3.95;72.05
65637;DHT22;52327;42.622;23.316;2023-12-29T06:21:08;3.86;71.90
65637;DHT22;52327;42.622;23.316;2023-12-29T06:23:34;3.92;71.99
65637;DHT22;52327;42.622;23.316;2023-12-29T06:26:02;3.97;71.92
65637;DHT22;52327;42.622;23.316;2023-12-29T06:28:27;4.07;70.96
65637;DHT22;52327;42.622;23.316;2023-12-29T06:30:53;4.26;69.58
65637;DHT22;52327;42.622;23.316;2023-12-29T06:33:19;4.24;71.56
65637;DHT22;52327;42.622;23.316;2023-12-29T06:35:55;4.29;72.33
65637;DHT22;52327;42.622;23.316;2023-12-29T06:38:21;4.17;73.76
65637;DHT22;52327;42.622;23.316;2023-12-29T06:40:46;4.38;73.22
65637;DHT22;52327;42.622;23.316;2023-12-29T06:43:12;4.41;73.09
65637;DHT22;52327;42.622;23.316;2023-12-29T06:45:37;4.43;74.01
65637;DHT22;52327;42.622;23.316;2023-12-29T06:48:03;4.60;73.98
65637;DHT22;52327;42.622;23.316;2023-12-29T06:50:31;4.62;73.61
65637;DHT22;52327;42.622;23.316;2023-12-29T06:53:02;4.68;73.89
65637;DHT22;52327;42.622;23.316;2023-12-29T06:55:28;4.93;71.82
65637;DHT22;52327;42.622;23.316;2023-12-29T06:57:53;4.91;72.68
65637;DHT22;52327;42.622;23.316;2023-12-29T07:00:19;4.91;73.16
65637;DHT22;52327;42.622;23.316;2023-12-29T07:02:44;4.91;73.25
65637;DHT22;52327;42.622;23.316;2023-12-29T07:05:10;4.95;73.20
65637;DHT22;52327;42.622;23.316;2023-12-29T07:07:38;4.99;73.30
65637;DHT22;52327;42.622;23.316;2023-12-29T07:10:04;5.02;73.35
65637;DHT22;52327;42.622;23.316;2023-12-29T07:12:31;5.09;73.45
65637;DHT22;52327;42.622;23.316;2023-12-29T07:14:57;5.20;73.52
65637;DHT22;52327;42.622;23.316;2023-12-29T07:17:22;5.26;73.85
65637;DHT22;52327;42.622;23.316;2023-12-29T07:19:48;5.35;73.79
65637;DHT22;52327;42.622;23.316;2023-12-29T07:22:14;5.38;73.59
65637;DHT22;52327;42.622;23.316;2023-12-29T07:24:40;5.47;73.30
65637;DHT22;52327;42.622;23.316;2023-12-29T07:27:06;5.53;72.90
65637;DHT22;52327;42.622;23.316;2023-12-29T07:29:33;5.64;72.50
65637;DHT22;52327;42.622;23.316;2023-12-29T07:31:58;5.93;71.40
65637;DHT22;52327;42.622;23.316;2023-12-29T07:34:24;5.57;72.27
65637;DHT22;52327;42.622;23.316;2023-12-29T07:36:50;5.40;73.95
65637;DHT22;52327;42.622;23.316;2023-12-29T07:39:15;5.53;73.95
65637;DHT22;52327;42.622;23.316;2023-12-29T07:41:41;5.61;74.04
65637;DHT22;52327;42.622;23.316;2023-12-29T07:44:07;5.63;74.20
65637;DHT22;52327;42.622;23.316;2023-12-29T07:46:33;5.67;74.43
65637;DHT22;52327;42.622;23.316;2023-12-29T07:48:58;5.84;73.91
65637;DHT22;52327;42.622;23.316;2023-12-29T07:51:24;5.88;74.04
65637;DHT22;52327;42.622;23.316;2023-12-29T07:53:49;5.91;74.20
65637;DHT22;52327;42.622;23.316;2023-12-29T07:56:15;5.94;73.95
65637;DHT22;52327;42.622;23.316;2023-12-29T07:58:40;5.80;73.69
65637;DHT22;52327;42.622;23.316;2023-12-29T08:01:05;5.60;74.03
65637;DHT22;52327;42.622;23.316;2023-12-29T08:03:31;5.59;74.75
65637;DHT22;52327;42.622;23.316;2023-12-29T08:05:56;5.49;75.27
65637;DHT22;52327;42.622;23.316;2023-12-29T08:08:22;5.78;74.53
65637;DHT22;52327;42.622;23.316;2023-12-29T08:10:47;5.86;74.69
65637;DHT22;52327;42.622;23.316;2023-12-29T08:13:12;5.83;74.53
65637;DHT22;52327;42.622;23.316;2023-12-29T08:15:38;6.05;74.49
65637;DHT22;52327;42.622;23.316;2023-12-29T08:18:04;6.11;74.39
65637;DHT22;52327;42.622;23.316;2023-12-29T08:20:30;6.26;74.25
65637;DHT22;52327;42.622;23.316;2023-12-29T08:22:56;6.41;73.93
65637;DHT22;52327;42.622;23.316;2023-12-29T08:25:22;6.31;73.18
65637;DHT22;52327;42.622;23.316;2023-12-29T08:27:48;6.43;73.46
65637;DHT22;52327;42.622;23.316;2023-12-29T08:30:13;6.71;72.68
65637;DHT22;52327;42.622;23.316;2023-12-29T08:32:39;6.72;72.77
65637;DHT22;52327;42.622;23.316;2023-12-29T08:35:04;6.68;72.81
65637;DHT22;52327;42.622;23.316;2023-12-29T08:37:31;6.56;72.94
65637;DHT22;52327;42.622;23.316;2023-12-29T08:39:58;6.42;73.25
65637;DHT22;52327;42.622;23.316;2023-12-29T08:42:24;6.55;73.09
65637;DHT22;52327;42.622;23.316;2023-12-29T08:44:49;6.62;72.93
65637;DHT22;52327;42.622;23.316;2023-12-29T08:47:15;6.53;72.69
65637;DHT22;52327;42.622;23.316;2023-12-29T08:49:40;6.65;72.77
65637;DHT22;52327;42.622;23.316;2023-12-29T08:52:08;6.69;72.89
65637;DHT22;52327;42.622;23.316;2023-12-29T08:54:36;6.73;72.82
65637;DHT22;52327;42.622;23.316;2023-12-29T08:57:03;6.45;72.27
65637;DHT22;52327;42.622;23.316;2023-12-29T08:59:28;6.49;72.79
65637;DHT22;52327;42.622;23.316;2023-12-29T09:01:54;6.53;73.05
65637;DHT22;52327;42.622;23.316;2023-12-29T09:04:19;6.59;72.46
65637;DHT22;52327;42.622;23.316;2023-12-29T09:06:44;6.57;72.89
65637;DHT22;52327;42.622;23.316;2023-12-29T09:09:10;6.65;72.25
65637;DHT22;52327;42.622;23.316;2023-12-29T09:11:38;6.45;72.35
65637;DHT22;52327;42.622;23.316;2023-12-29T09:14:04;6.45;72.08
65637;DHT22;52327;42.622;23.316;2023-12-29T09:16:30;6.62;71.69
65637;DHT22;52327;42.622;23.316;2023-12-29T09:18:55;6.59;72.27
65637;DHT22;52327;42.622;23.316;2023-12-29T09:21:20;6.63;72.38
65637;DHT22;52327;42.622;23.316;2023-12-29T09:23:46;6.71;72.45
65637;DHT22;52327;42.622;23.316;2023-12-29T09:26:12;6.72;72.50
65637;DHT22;52327;42.622;23.316;2023-12-29T09:28:38;7.04;71.10
65637;DHT22;52327;42.622;23.316;2023-12-29T09:31:06;7.07;71.51
65637;DHT22;52327;42.622;23.316;2023-12-29T09:33:32;7.20;70.97
65637;DHT22;52327;42.622;23.316;2023-12-29T09:35:57;7.18;70.97
65637;DHT22;52327;42.622;23.316;2023-12-29T09:38:23;7.14;71.05
65637;DHT22;52327;42.622;23.316;2023-12-29T09:40:48;7.11;70.45
65637;DHT22;52327;42.622;23.316;2023-12-29T09:43:14;7.03;70.84
65637;DHT22;52327;42.622;23.316;2023-12-29T09:45:40;7.00;70.66
65637;DHT22;52327;42.622;23.316;2023-12-29T09:48:07;7.04;70.84
65637;DHT22;52327;42.622;23.316;2023-12-29T09:50:34;7.18;70.62
65637;DHT22;52327;42.622;23.316;2023-12-29T09:53:02;7.24;70.14
65637;DHT22;52327;42.622;23.316;2023-12-29T09:55:28;7.37;70.30
65637;DHT22;52327;42.622;23.316;2023-12-29T09:57:54;7.43;70.25
65637;DHT22;52327;42.622;23.316;2023-12-29T10:00:20;7.56;69.21
65637;DHT22;52327;42.622;23.316;2023-12-29T10:02:46;7.71;69.40
65637;DHT22;52327;42.622;23.316;2023-12-29T10:05:14;7.85;68.65
65637;DHT22;52327;42.622;23.316;2023-12-29T10:07:41;7.76;68.04
65637;DHT22;52327;42.622;23.316;2023-12-29T10:10:14;7.81;68.54
65637;DHT22;52327;42.622;23.316;2023-12-29T10:12:40;7.99;68.16
65637;DHT22;52327;42.622;23.316;2023-12-29T10:15:14;8.06;68.24
65637;DHT22;52327;42.622;23.316;2023-12-29T10:20:47;8.30;67.29
65637;DHT22;52327;42.622;23.316;2023-12-29T10:23:20;8.44;66.72
65637;DHT22;52327;42.622;23.316;2023-12-29T10:25:48;8.50;66.75
65637;DHT22;52327;42.622;23.316;2023-12-29T10:28:15;8.58;66.74
65637;DHT22;52327;42.622;23.316;2023-12-29T10:30:42;8.67;66.30
65637;DHT22;52327;42.622;23.316;2023-12-29T10:33:08;8.81;66.55
65637;DHT22;52327;42.622;23.316;2023-12-29T10:35:35;9.04;65.21
65637;DHT22;52327;42.622;23.316;2023-12-29T10:38:12;9.22;64.63
65637;DHT22;52327;42.622;23.316;2023-12-29T10:40:38;9.28;64.79
65637;DHT22;52327;42.622;23.316;2023-12-29T10:43:04;9.22;65.33
65637;DHT22;52327;42.622;23.316;2023-12-29T10:45:33;9.30;65.37
65637;DHT22;52327;42.622;23.316;2023-12-29T10:48:00;9.22;64.87
65637;DHT22;52327;42.622;23.316;2023-12-29T10:50:26;9.42;64.02
65637;DHT22;52327;42.622;23.316;2023-12-29T10:53:10;9.43;64.47
65637;DHT22;52327;42.622;23.316;2023-12-29T10:55:36;9.56;64.31
65637;DHT22;52327;42.622;23.316;2023-12-29T10:58:01;9.63;64.27
65637;DHT22;52327;42.622;23.316;2023-12-29T11:00:30;9.77;63.02
65637;DHT22;52327;42.622;23.316;2023-12-29T11:02:56;9.90;62.85
65637;DHT22;52327;42.622;23.316;2023-12-29T11:05:25;9.84;63.35
65637;DHT22;52327;42.622;23.316;2023-12-29T11:07:51;10.01;62.69
65637;DHT22;52327;42.622;23.316;2023-12-29T11:10:20;10.04;62.33
65637;DHT22;52327;42.622;23.316;2023-12-29T11:12:48;10.00;63.16
65637;DHT22;52327;42.622;23.316;2023-12-29T11:15:15;10.14;62.76
65637;DHT22;52327;42.622;23.316;2023-12-29T11:17:42;10.27;63.00
65637;DHT22;52327;42.622;23.316;2023-12-29T11:20:17;10.35;62.04
65637;DHT22;52327;42.622;23.316;2023-12-29T11:22:46;10.42;61.62
65637;DHT22;52327;42.622;23.316;2023-12-29T11:25:12;10.62;59.89
65637;DHT22;52327;42.622;23.316;2023-12-29T11:27:37;10.40;61.28
65637;DHT22;52327;42.622;23.316;2023-12-29T11:30:04;10.53;61.50
65637;DHT22;52327;42.622;23.316;2023-12-29T11:35:05;10.58;61.33
65637;DHT22;52327;42.622;23.316;2023-12-29T11:40:18;10.41;61.09
65637;DHT22;52327;42.622;23.316;2023-12-29T11:42:49;10.44;60.78
65637;DHT22;52327;42.622;23.316;2023-12-29T11:45:31;10.52;60.75
65637;DHT22;52327;42.622;23.316;2023-12-29T11:48:03;10.59;61.47
65637;DHT22;52327;42.622;23.316;2023-12-29T11:50:32;10.56;61.39
65637;DHT22;52327;42.622;23.316;2023-12-29T11:52:58;10.63;61.50
65637;DHT22;52327;42.622;23.316;2023-12-29T11:55:38;10.77;60.38
65637;DHT22;52327;42.622;23.316;2023-12-29T11:58:05;10.73;61.04
65637;DHT22;52327;42.622;23.316;2023-12-29T12:00:48;10.59;61.57
65637;DHT22;52327;42.622;23.316;2023-12-29T12:03:19;10.53;61.49
65637;DHT22;52327;42.622;23.316;2023-12-29T12:05:49;10.46;61.56
65637;DHT22;52327;42.622;23.316;2023-12-29T12:10:54;10.46;61.49
65637;DHT22;52327;42.622;23.316;2023-12-29T12:13:58;10.53;61.71
65637;DHT22;52327;42.622;23.316;2023-12-29T12:19:10;10.69;62.07
65637;DHT22;52327;42.622;23.316;2023-12-29T12:21:36;10.69;62.27
65637;DHT22;52327;42.622;23.316;2023-12-29T12:24:04;10.68;62.77
65637;DHT22;52327;42.622;23.316;2023-12-29T12:26:33;10.83;60.85
65637;DHT22;52327;42.622;23.316;2023-12-29T12:28:59;10.59;62.24
65637;DHT22;52327;42.622;23.316;2023-12-29T12:31:25;10.53;62.82
65637;DHT22;52327;42.622;23.316;2023-12-29T12:36:21;10.82;60.15
65637;DHT22;52327;42.622;23.316;2023-12-29T12:38:54;10.89;60.09
65637;DHT22;52327;42.622;23.316;2023-12-29T12:41:23;10.77;61.19
65637;DHT22;52327;42.622;23.316;2023-12-29T12:44:07;10.77;61.40
65637;DHT22;52327;42.622;23.316;2023-12-29T12:46:34;10.76;61.36
65637;DHT22;52327;42.622;23.316;2023-12-29T12:49:03;10.80;59.63
65637;DHT22;52327;42.622;23.316;2023-12-29T12:51:31;10.62;61.14
65637;DHT22;52327;42.622;23.316;2023-12-29T12:53:57;10.42;61.57
65637;DHT22;52327;42.622;23.316;2023-12-29T12:56:23;10.52;60.96
65637;DHT22;52327;42.622;23.316;2023-12-29T12:58:53;10.62;59.66
65637;DHT22;52327;42.622;23.316;2023-12-29T13:01:18;10.21;60.87
65637;DHT22;52327;42.622;23.316;2023-12-29T13:03:44;10.28;60.93
65637;DHT22;52327;42.622;23.316;2023-12-29T13:06:10;10.22;60.38
65637;DHT22;52327;42.622;23.316;2023-12-29T13:08:35;10.21;60.29
65637;DHT22;52327;42.622;23.316;2023-12-29T13:11:01;10.05;61.32
65637;DHT22;52327;42.622;23.316;2023-12-29T13:16:02;9.81;61.58
65637;DHT22;52327;42.622;23.316;2023-12-29T13:18:31;9.66;62.35
65637;DHT22;52327;42.622;23.316;2023-12-29T13:21:01;9.56;62.35
65637;DHT22;52327;42.622;23.316;2023-12-29T13:23:27;9.59;60.95
65637;DHT22;52327;42.622;23.316;2023-12-29T13:26:02;9.43;62.12
65637;DHT22;52327;42.622;23.316;2023-12-29T13:28:31;9.46;61.46
65637;DHT22;52327;42.622;23.316;2023-12-29T13:30:58;9.39;61.52
65637;DHT22;52327;42.622;23.316;2023-12-29T13:36:19;9.18;62.92
65637;DHT22;52327;42.622;23.316;2023-12-29T13:38:53;9.12;62.61
65637;DHT22;52327;42.622;23.316;2023-12-29T13:41:19;9.07;62.53
65637;DHT22;52327;42.622;23.316;2023-12-29T13:43:45;8.99;62.75
65637;DHT22;52327;42.622;23.316;2023-12-29T13:46:12;8.95;62.43
65637;DHT22;52327;42.622;23.316;2023-12-29T13:48:40;8.91;63.22
65637;DHT22;52327;42.622;23.316;2023-12-29T13:51:07;8.88;63.42
65637;DHT22;52327;42.622;23.316;2023-12-29T13:53:32;8.85;63.60
65637;DHT22;52327;42.622;23.316;2023-12-29T13:56:08;8.87;63.15
65637;DHT22;52327;42.622;23.316;2023-12-29T13:58:34;8.91;62.22
65637;DHT22;52327;42.622;23.316;2023-12-29T14:01:00;8.87;62.88
65637;DHT22;52327;42.622;23.316;2023-12-29T14:03:37;8.77;63.06
65637;DHT22;52327;42.622;23.316;2023-12-29T14:06:08;8.65;63.66
65637;DHT22;52327;42.622;23.316;2023-12-29T14:08:45;8.58;63.20
65637;DHT22;52327;42.622;23.316;2023-12-29T14:11:11;8.48;64.73
65637;DHT22;52327;42.622;23.316;2023-12-29T14:13:44;8.58;63.08
65637;DHT22;52327;42.622;23.316;2023-12-29T14:16:10;8.61;62.89
65637;DHT22;52327;42.622;23.316;2023-12-29T14:18:46;8.56;63.87
65637;DHT22;52327;42.622;23.316;2023-12-29T14:21:29;8.50;63.80
65637;DHT22;52327;42.622;23.316;2023-12-29T14:26:30;8.37;64.34
65637;DHT22;52327;42.622;23.316;2023-12-29T14:29:09;8.37;63.58
65637;DHT22;52327;42.622;23.316;2023-12-29T14:31:42;8.33;64.49
65637;DHT22;52327;42.622;23.316;2023-12-29T14:34:08;8.33;64.35
65637;DHT22;52327;42.622;23.316;2023-12-29T14:36:35;8.36;64.07
65637;DHT22;52327;42.622;23.316;2023-12-29T14:39:02;8.32;64.11
65637;DHT22;52327;42.622;23.316;2023-12-29T14:41:28;8.26;64.57
65637;DHT22;52327;42.622;23.316;2023-12-29T14:43:54;8.14;65.74
65637;DHT22;52327;42.622;23.316;2023-12-29T14:46:20;8.17;65.03
65637;DHT22;52327;42.622;23.316;2023-12-29T14:48:45;8.17;65.08
65637;DHT22;52327;42.622;23.316;2023-12-29T14:51:11;8.06;66.00
65637;DHT22;52327;42.622;23.316;2023-12-29T14:53:37;7.99;65.94
65637;DHT22;52327;42.622;23.316;2023-12-29T14:56:04;7.85;66.92
65637;DHT22;52327;42.622;23.316;2023-12-29T14:58:29;7.76;67.13
65637;DHT22;52327;42.622;23.316;2023-12-29T15:00:56;7.83;66.56
65637;DHT22;52327;42.622;23.316;2023-12-29T15:03:22;7.82;67.05
65637;DHT22;52327;42.622;23.316;2023-12-29T15:05:48;7.82;67.28
65637;DHT22;52327;42.622;23.316;2023-12-29T15:08:14;7.79;67.02
65637;DHT22;52327;42.622;23.316;2023-12-29T15:10:39;7.79;66.61
65637;DHT22;52327;42.622;23.316;2023-12-29T15:13:05;7.69;67.57
65637;DHT22;52327;42.622;23.316;2023-12-29T15:15:32;7.56;67.73
65637;DHT22;52327;42.622;23.316;2023-12-29T15:17:58;7.64;66.81
65637;DHT22;52327;42.622;23.316;2023-12-29T15:20:23;7.61;67.27
65637;DHT22;52327;42.622;23.316;2023-12-29T15:22:49;7.71;66.88
65637;DHT22;52327;42.622;23.316;2023-12-29T15:25:15;7.62;67.23
65637;DHT22;52327;42.622;23.316;2023-12-29T15:27:41;7.51;67.95
65637;DHT22;52327;42.622;23.316;2023-12-29T15:30:07;7.44;67.65
65637;DHT22;52327;42.622;23.316;2023-12-29T15:32:33;7.50;67.46
65637;DHT22;52327;42.622;23.316;2023-12-29T15:34:58;7.65;66.55
65637;DHT22;52327;42.622;23.316;2023-12-29T15:37:24;7.75;66.46
65637;DHT22;52327;42.622;23.316;2023-12-29T15:39:49;7.68;66.71
65637;DHT22;52327;42.622;23.316;2023-12-29T15:42:15;7.65;66.83
65637;DHT22;52327;42.622;23.316;2023-12-29T15:44:40;7.65;67.11
65637;DHT22;52327;42.622;23.316;2023-12-29T15:47:06;7.52;66.88
65637;DHT22;52327;42.622;23.316;2023-12-29T15:49:31;7.40;68.15
65637;DHT22;52327;42.622;23.316;2023-12-29T15:51:56;7.38;68.30
65637;DHT22;52327;42.622;23.316;2023-12-29T15:54:23;7.43;67.54
65637;DHT22;52327;42.622;23.316;2023-12-29T15:56:48;7.21;67.98